• Join FlightAware (Why Join?)
  • Login
  • US Flag 
08:19PM EST


 

Airport Tracker/Info


-or-


 

Live Flight TrackerFlight Track Log ✈ ASQ5463 ✈ 19-Apr-2013 ✈ KTYS - KATL

Flight Track Log - Related Links

Times and Time Zones

All times are in EDT time to prevent confusion due to time zone crossing. See the ASQ5463 flight status page for this flight to view local times or setup timezone preferences in your user account.

Time Position Orientation Groundspeed Altitude Reporting Facility
EDT Latitude Longitude Course Direction KTS MPH feet Rate Location/Type
05:25PM 35.7161 -84.0261 151° Southeast 260 299 21,000  Level Atlanta Center
05:26PM 35.6514 -83.9775 149° Southeast 287 330 8,000 -5,220 Descending Atlanta Center
05:27PM 35.5847 -83.9342 152° Southeast 287 330 10,600 1,680 Climbing Atlanta Center
05:28PM 35.5053 -83.8756 149° Southeast 303 349 11,400 1,320 Climbing Atlanta Center
05:29PM 35.4156 -83.8094 149° Southeast 328 377 13,300 1,920 Climbing Atlanta Center
05:30PM 35.3512 -84.0877 151° Southeast  Level Estimated
05:30PM 35.3300 -83.7511 151° Southeast 345 397 15,300  Level Atlanta Center
05:31PM 35.2464 -83.6903 149° Southeast 350 403 17,600 1,800 Climbing Atlanta Center
05:32PM 35.1667 -83.6347 150° Southeast 350 403 19,000 1,140 Climbing Atlanta Center
05:33PM 35.0811 -83.5744 150° Southeast 350 403 19,900 960 Climbing Atlanta Center
05:34PM 34.9931 -83.5114 150° Southeast 360 414 21,000 540 Climbing Atlanta Center
05:35PM 34.9053 -83.4511 151° Southeast 360 414 21,000  Level Atlanta Center
05:36PM 34.8194 -83.3911 150° Southeast 360 414 21,000  Level Atlanta Center
05:37PM 34.7339 -83.3892 179° South 315 362 21,000  Level Atlanta Center
05:38PM 34.6714 -83.4325 210° Southwest 295 339 21,000  Level Atlanta Center
05:39PM 34.5819 -83.4889 207° Southwest 306 352 21,000 -600 Level Atlanta Center
05:40PM 34.5092 -83.5472 213° Southwest 312 359 19,900 -1,500 Descending Atlanta Center
05:41PM 34.4383 -83.5981 211° Southwest 312 359 18,100 -1,920 Descending Atlanta Center
05:42PM 34.3697 -83.6461 210° Southwest 295 339 16,100 -1,980 Descending Atlanta Center
05:43PM 34.3031 -83.6917 209° Southwest 282 325 14,200 -1,920 Descending Atlanta Center
05:44PM 34.2406 -83.7372 211° Southwest 282 325 12,300 -1,140 Descending Atlanta Center
05:45PM 34.1717 -83.7828 209° Southwest 277 319 12,000 -180 Descending Atlanta Center
05:46PM 34.1092 -83.8281 211° Southwest 266 306 12,000 -420 Level Atlanta Center
05:47PM 34.0572 -83.8758 217° Southwest 251 289 11,200 -1,380 Descending Atlanta Center
05:48PM 34.0167 -83.9167 220° Southwest 234 269 9,700 -1,320 Descending Atlanta TRACON
05:49PM 33.9667 -83.9500 209° Southwest 231 266 9,000 -360 Descending Atlanta TRACON
05:50PM 33.9000 -83.9500 180° South 244 281 9,000  Level Atlanta TRACON
05:51PM 33.8333 -83.9667 192° South 238 274 9,000  Level Atlanta TRACON
05:51PM 33.8256 -83.9639 163° South 242 278 9,000 -1,020 Level Atlanta Center
05:53PM 33.7000 -83.9833 187° South 248 285 7,000 -780 Descending Atlanta TRACON
05:54PM 33.6500 -84.0000 196° South 231 266 7,000 -120 Level Atlanta TRACON
05:55PM 33.6333 -84.0667 253° West 212 244 6,800 -600 Descending Atlanta TRACON
05:56PM 33.6333 -84.1333 270° West 183 211 5,800 -960 Descending Atlanta TRACON
05:57PM 33.6333 -84.1833 270° West 166 191 4,900 -900 Descending Atlanta TRACON
05:58PM 33.6333 -84.2333 270° West 173 199 4,000 -960 Descending Atlanta TRACON
05:59PM 33.6333 -84.3000 270° West 179 206 3,000 -900 Descending Atlanta TRACON
06:00PM 33.6333 -84.3500 270° West 145 167 2,200 -840 Descending Atlanta TRACON
06:01PM 33.6333 -84.4000 270° West 137 158 1,400 -840 Descending Atlanta TRACON
06:03PM 33.6367 -84.4279 270° West  Level Estimated
06:10PM 33.6367 -84.4279 64° Northeast  Level Estimated